sensor_id;sensor_type;location;lat;lon;timestamp;temperature;humidity
35240;DHT22;21376;50.954;4.716;2023-04-03T00:15:07;0.80;99.90
35240;DHT22;21376;50.954;4.716;2023-04-03T00:17:35;0.80;99.90
35240;DHT22;21376;50.954;4.716;2023-04-03T00:20:03;0.80;99.90
35240;DHT22;21376;50.954;4.716;2023-04-03T00:22:31;0.70;99.90
35240;DHT22;21376;50.954;4.716;2023-04-03T00:24:57;0.80;99.90
35240;DHT22;21376;50.954;4.716;2023-04-03T00:27:23;1.00;99.90
35240;DHT22;21376;50.954;4.716;2023-04-03T00:29:49;0.80;99.90
35240;DHT22;21376;50.954;4.716;2023-04-03T00:32:17;0.70;99.90
35240;DHT22;21376;50.954;4.716;2023-04-03T00:34:45;0.70;99.90
35240;DHT22;21376;50.954;4.716;2023-04-03T00:37:22;0.80;99.90
35240;DHT22;21376;50.954;4.716;2023-04-03T00:39:51;0.60;99.90
35240;DHT22;21376;50.954;4.716;2023-04-03T00:42:20;0.60;99.90
35240;DHT22;21376;50.954;4.716;2023-04-03T00:47:40;0.60;99.90
35240;DHT22;21376;50.954;4.716;2023-04-03T00:50:13;0.70;99.90
35240;DHT22;21376;50.954;4.716;2023-04-03T00:52:42;0.60;99.90
35240;DHT22;21376;50.954;4.716;2023-04-03T00:55:15;0.80;99.90
35240;DHT22;21376;50.954;4.716;2023-04-03T00:58:06;0.70;99.90
35240;DHT22;21376;50.954;4.716;2023-04-03T01:00:36;0.70;99.90
35240;DHT22;21376;50.954;4.716;2023-04-03T01:03:05;0.80;99.90
35240;DHT22;21376;50.954;4.716;2023-04-03T01:12:24;0.70;99.90
35240;DHT22;21376;50.954;4.716;2023-04-03T01:15:20;1.10;99.90
35240;DHT22;21376;50.954;4.716;2023-04-03T01:17:50;1.40;99.90
35240;DHT22;21376;50.954;4.716;2023-04-03T01:23:25;1.50;99.90
35240;DHT22;21376;50.954;4.716;2023-04-03T01:25:56;1.70;99.90
35240;DHT22;21376;50.954;4.716;2023-04-03T01:31:20;1.30;99.90
35240;DHT22;21376;50.954;4.716;2023-04-03T01:33:51;1.30;99.90
35240;DHT22;21376;50.954;4.716;2023-04-03T01:36:23;1.30;99.90
35240;DHT22;21376;50.954;4.716;2023-04-03T01:38:53;1.40;99.90
35240;DHT22;21376;50.954;4.716;2023-04-03T01:41:31;1.30;99.90
35240;DHT22;21376;50.954;4.716;2023-04-03T01:44:01;1.30;99.90
35240;DHT22;21376;50.954;4.716;2023-04-03T01:46:27;1.30;99.90
35240;DHT22;21376;50.954;4.716;2023-04-03T01:48:52;1.40;99.90
35240;DHT22;21376;50.954;4.716;2023-04-03T01:51:40;1.50;99.90
35240;DHT22;21376;50.954;4.716;2023-04-03T01:54:09;1.40;99.90
35240;DHT22;21376;50.954;4.716;2023-04-03T01:56:36;1.20;99.90
35240;DHT22;21376;50.954;4.716;2023-04-03T01:59:01;1.10;99.90
35240;DHT22;21376;50.954;4.716;2023-04-03T02:01:30;1.00;99.90
35240;DHT22;21376;50.954;4.716;2023-04-03T02:04:00;0.80;99.90
35240;DHT22;21376;50.954;4.716;2023-04-03T02:06:29;1.00;99.90
35240;DHT22;21376;50.954;4.716;2023-04-03T02:08:57;0.90;99.90
35240;DHT22;21376;50.954;4.716;2023-04-03T02:11:26;0.90;99.90
35240;DHT22;21376;50.954;4.716;2023-04-03T02:13:54;0.60;99.90
35240;DHT22;21376;50.954;4.716;2023-04-03T02:16:29;0.70;99.90
35240;DHT22;21376;50.954;4.716;2023-04-03T02:22:07;0.40;99.90
35240;DHT22;21376;50.954;4.716;2023-04-03T02:24:36;0.80;99.90
35240;DHT22;21376;50.954;4.716;2023-04-03T02:27:05;0.50;99.90
35240;DHT22;21376;50.954;4.716;2023-04-03T02:29:32;0.40;99.90
35240;DHT22;21376;50.954;4.716;2023-04-03T02:31:59;0.40;99.90
35240;DHT22;21376;50.954;4.716;2023-04-03T02:34:53;0.40;99.90
35240;DHT22;21376;50.954;4.716;2023-04-03T02:37:22;0.30;99.90
35240;DHT22;21376;50.954;4.716;2023-04-03T02:39:51;0.50;99.90
35240;DHT22;21376;50.954;4.716;2023-04-03T02:42:30;0.50;99.90
35240;DHT22;21376;50.954;4.716;2023-04-03T02:45:03;0.40;99.90
35240;DHT22;21376;50.954;4.716;2023-04-03T02:47:33;0.40;99.90
35240;DHT22;21376;50.954;4.716;2023-04-03T02:50:02;0.40;99.90
35240;DHT22;21376;50.954;4.716;2023-04-03T02:52:34;0.30;99.90
35240;DHT22;21376;50.954;4.716;2023-04-03T02:55:03;0.30;99.90
35240;DHT22;21376;50.954;4.716;2023-04-03T02:57:29;0.30;99.90
35240;DHT22;21376;50.954;4.716;2023-04-03T02:59:55;0.40;99.90
35240;DHT22;21376;50.954;4.716;2023-04-03T03:02:22;0.20;99.90
35240;DHT22;21376;50.954;4.716;2023-04-03T03:04:51;0.30;99.90
35240;DHT22;21376;50.954;4.716;2023-04-03T03:07:17;0.10;99.90
35240;DHT22;21376;50.954;4.716;2023-04-03T03:09:46;0.00;99.90
35240;DHT22;21376;50.954;4.716;2023-04-03T03:12:15;-0.10;99.90
35240;DHT22;21376;50.954;4.716;2023-04-03T03:14:44;-0.30;99.90
35240;DHT22;21376;50.954;4.716;2023-04-03T03:17:13;0.00;99.90
35240;DHT22;21376;50.954;4.716;2023-04-03T03:19:39;-0.10;99.90
35240;DHT22;21376;50.954;4.716;2023-04-03T03:22:27;0.00;99.90
35240;DHT22;21376;50.954;4.716;2023-04-03T03:24:54;-0.10;99.90
35240;DHT22;21376;50.954;4.716;2023-04-03T03:27:23;0.10;99.90
35240;DHT22;21376;50.954;4.716;2023-04-03T03:29:52;-0.10;99.90
35240;DHT22;21376;50.954;4.716;2023-04-03T03:32:21;-0.20;99.90
35240;DHT22;21376;50.954;4.716;2023-04-03T03:34:51;-0.20;99.90
35240;DHT22;21376;50.954;4.716;2023-04-03T03:37:22;0.00;99.90
35240;DHT22;21376;50.954;4.716;2023-04-03T03:39:48;0.10;99.90
35240;DHT22;21376;50.954;4.716;2023-04-03T03:45:32;0.00;99.90
35240;DHT22;21376;50.954;4.716;2023-04-03T03:48:04;0.10;99.90
35240;DHT22;21376;50.954;4.716;2023-04-03T03:50:33;0.10;99.90
35240;DHT22;21376;50.954;4.716;2023-04-03T03:53:00;0.10;99.90
35240;DHT22;21376;50.954;4.716;2023-04-03T03:55:30;0.30;99.90
35240;DHT22;21376;50.954;4.716;2023-04-03T03:57:59;0.20;99.90
35240;DHT22;21376;50.954;4.716;2023-04-03T04:00:27;0.20;99.90
35240;DHT22;21376;50.954;4.716;2023-04-03T04:02:56;0.00;99.90
35240;DHT22;21376;50.954;4.716;2023-04-03T04:05:49;0.10;99.90
35240;DHT22;21376;50.954;4.716;2023-04-03T04:08:18;-0.20;99.90
35240;DHT22;21376;50.954;4.716;2023-04-03T04:11:13;-0.20;99.90
35240;DHT22;21376;50.954;4.716;2023-04-03T04:13:42;-0.30;99.90
35240;DHT22;21376;50.954;4.716;2023-04-03T04:16:38;-0.30;99.90
35240;DHT22;21376;50.954;4.716;2023-04-03T04:19:05;-0.30;99.90
35240;DHT22;21376;50.954;4.716;2023-04-03T04:21:33;-0.30;99.90
35240;DHT22;21376;50.954;4.716;2023-04-03T04:24:03;-0.50;99.90
35240;DHT22;21376;50.954;4.716;2023-04-03T04:26:29;-0.60;99.90
35240;DHT22;21376;50.954;4.716;2023-04-03T04:28:57;-0.60;99.90
35240;DHT22;21376;50.954;4.716;2023-04-03T04:31:23;-0.60;99.90
35240;DHT22;21376;50.954;4.716;2023-04-03T04:33:52;-0.30;99.90
35240;DHT22;21376;50.954;4.716;2023-04-03T04:36:21;-0.40;99.90
35240;DHT22;21376;50.954;4.716;2023-04-03T04:38:48;-0.50;99.90
35240;DHT22;21376;50.954;4.716;2023-04-03T04:41:38;-0.50;99.90
35240;DHT22;21376;50.954;4.716;2023-04-03T04:47:00;-0.40;99.90
35240;DHT22;21376;50.954;4.716;2023-04-03T04:49:41;-0.30;99.90
35240;DHT22;21376;50.954;4.716;2023-04-03T04:52:09;-0.40;99.90
35240;DHT22;21376;50.954;4.716;2023-04-03T04:57:53;-0.40;99.90
35240;DHT22;21376;50.954;4.716;2023-04-03T05:00:25;-0.30;99.90
35240;DHT22;21376;50.954;4.716;2023-04-03T05:02:54;-0.40;99.90
35240;DHT22;21376;50.954;4.716;2023-04-03T05:05:19;-0.50;99.90
35240;DHT22;21376;50.954;4.716;2023-04-03T05:07:48;-0.50;99.90
35240;DHT22;21376;50.954;4.716;2023-04-03T05:10:32;-0.30;99.90
35240;DHT22;21376;50.954;4.716;2023-04-03T05:13:01;-0.30;99.90
35240;DHT22;21376;50.954;4.716;2023-04-03T05:15:32;-0.50;99.90
35240;DHT22;21376;50.954;4.716;2023-04-03T05:18:13;-0.30;99.90
35240;DHT22;21376;50.954;4.716;2023-04-03T05:20:41;-0.60;99.90
35240;DHT22;21376;50.954;4.716;2023-04-03T05:23:09;-0.30;99.90
35240;DHT22;21376;50.954;4.716;2023-04-03T05:25:39;-0.30;99.90
35240;DHT22;21376;50.954;4.716;2023-04-03T05:28:07;-0.10;99.90
35240;DHT22;21376;50.954;4.716;2023-04-03T05:30:36;-0.30;99.90
35240;DHT22;21376;50.954;4.716;2023-04-03T05:33:04;-0.10;99.90
35240;DHT22;21376;50.954;4.716;2023-04-03T05:35:32;-0.10;99.90
35240;DHT22;21376;50.954;4.716;2023-04-03T05:38:01;-0.30;99.90
35240;DHT22;21376;50.954;4.716;2023-04-03T05:40:30;-0.30;99.90
35240;DHT22;21376;50.954;4.716;2023-04-03T05:42:58;-0.30;99.90
35240;DHT22;21376;50.954;4.716;2023-04-03T05:45:29;-0.10;99.90
35240;DHT22;21376;50.954;4.716;2023-04-03T05:47:58;-0.30;99.90
35240;DHT22;21376;50.954;4.716;2023-04-03T05:50:24;-0.10;99.90
35240;DHT22;21376;50.954;4.716;2023-04-03T05:52:51;-0.10;99.90
35240;DHT22;21376;50.954;4.716;2023-04-03T05:55:19;0.00;99.90
35240;DHT22;21376;50.954;4.716;2023-04-03T05:57:54;0.00;99.90
35240;DHT22;21376;50.954;4.716;2023-04-03T06:00:23;0.40;99.90
35240;DHT22;21376;50.954;4.716;2023-04-03T06:02:52;0.20;99.90
35240;DHT22;21376;50.954;4.716;2023-04-03T06:05:21;0.50;99.90
35240;DHT22;21376;50.954;4.716;2023-04-03T06:07:53;0.50;99.90
35240;DHT22;21376;50.954;4.716;2023-04-03T06:10:38;0.70;99.90
35240;DHT22;21376;50.954;4.716;2023-04-03T06:13:04;1.00;99.90
35240;DHT22;21376;50.954;4.716;2023-04-03T06:22:01;1.30;99.90
35240;DHT22;21376;50.954;4.716;2023-04-03T06:24:31;1.40;99.90
35240;DHT22;21376;50.954;4.716;2023-04-03T06:27:12;1.60;99.90
35240;DHT22;21376;50.954;4.716;2023-04-03T06:29:41;1.70;99.90
35240;DHT22;21376;50.954;4.716;2023-04-03T06:32:10;1.70;99.90
35240;DHT22;21376;50.954;4.716;2023-04-03T06:34:39;1.90;99.90
35240;DHT22;21376;50.954;4.716;2023-04-03T06:37:35;1.70;99.90
35240;DHT22;21376;50.954;4.716;2023-04-03T06:40:12;1.80;99.90
35240;DHT22;21376;50.954;4.716;2023-04-03T06:42:57;1.90;99.90
35240;DHT22;21376;50.954;4.716;2023-04-03T06:45:26;2.30;99.90
35240;DHT22;21376;50.954;4.716;2023-04-03T06:48:25;2.20;99.90
35240;DHT22;21376;50.954;4.716;2023-04-03T06:50:53;2.10;99.90
35240;DHT22;21376;50.954;4.716;2023-04-03T06:53:34;2.30;99.90
35240;DHT22;21376;50.954;4.716;2023-04-03T06:56:00;2.30;99.90
35240;DHT22;21376;50.954;4.716;2023-04-03T06:58:29;2.40;99.90
35240;DHT22;21376;50.954;4.716;2023-04-03T07:01:19;2.40;99.90
35240;DHT22;21376;50.954;4.716;2023-04-03T07:03:48;2.90;99.90
35240;DHT22;21376;50.954;4.716;2023-04-03T07:06:18;5.30;99.90
35240;DHT22;21376;50.954;4.716;2023-04-03T07:08:57;7.10;99.90
35240;DHT22;21376;50.954;4.716;2023-04-03T07:11:27;9.30;99.90
35240;DHT22;21376;50.954;4.716;2023-04-03T07:18:46;14.70;99.90
35240;DHT22;21376;50.954;4.716;2023-04-03T07:21:18;15.10;99.90
35240;DHT22;21376;50.954;4.716;2023-04-03T07:23:47;14.00;99.90
35240;DHT22;21376;50.954;4.716;2023-04-03T07:26:19;13.90;99.90
35240;DHT22;21376;50.954;4.716;2023-04-03T07:29:11;13.50;99.90
35240;DHT22;21376;50.954;4.716;2023-04-03T07:31:40;14.20;99.90
35240;DHT22;21376;50.954;4.716;2023-04-03T07:34:10;15.90;99.90
35240;DHT22;21376;50.954;4.716;2023-04-03T07:36:50;17.20;99.90
35240;DHT22;21376;50.954;4.716;2023-04-03T07:39:19;14.30;99.90
35240;DHT22;21376;50.954;4.716;2023-04-03T07:41:48;15.90;99.90
35240;DHT22;21376;50.954;4.716;2023-04-03T07:44:45;16.80;99.90
35240;DHT22;21376;50.954;4.716;2023-04-03T07:47:15;17.40;98.70
35240;DHT22;21376;50.954;4.716;2023-04-03T07:49:46;17.30;97.90
35240;DHT22;21376;50.954;4.716;2023-04-03T07:52:15;18.30;95.60
35240;DHT22;21376;50.954;4.716;2023-04-03T07:54:43;18.80;93.20
35240;DHT22;21376;50.954;4.716;2023-04-03T07:57:09;17.80;92.70
35240;DHT22;21376;50.954;4.716;2023-04-03T07:59:38;16.30;94.50
35240;DHT22;21376;50.954;4.716;2023-04-03T08:02:09;17.00;97.00
35240;DHT22;21376;50.954;4.716;2023-04-03T08:04:41;17.00;93.80
35240;DHT22;21376;50.954;4.716;2023-04-03T08:07:09;17.30;94.90
35240;DHT22;21376;50.954;4.716;2023-04-03T08:09:38;17.90;92.20
35240;DHT22;21376;50.954;4.716;2023-04-03T08:12:07;19.00;91.60
35240;DHT22;21376;50.954;4.716;2023-04-03T08:14:36;19.60;92.20
35240;DHT22;21376;50.954;4.716;2023-04-03T08:29:05;20.60;81.10
35240;DHT22;21376;50.954;4.716;2023-04-03T08:31:37;19.00;80.10
35240;DHT22;21376;50.954;4.716;2023-04-03T08:34:06;19.00;81.60
35240;DHT22;21376;50.954;4.716;2023-04-03T08:36:35;18.30;84.50
35240;DHT22;21376;50.954;4.716;2023-04-03T08:39:04;19.20;82.30
35240;DHT22;21376;50.954;4.716;2023-04-03T08:41:41;20.20;79.90
35240;DHT22;21376;50.954;4.716;2023-04-03T08:50:52;19.30;78.80
35240;DHT22;21376;50.954;4.716;2023-04-03T08:53:27;17.50;82.20
35240;DHT22;21376;50.954;4.716;2023-04-03T08:55:58;18.10;85.30
35240;DHT22;21376;50.954;4.716;2023-04-03T08:58:28;20.20;78.70
35240;DHT22;21376;50.954;4.716;2023-04-03T09:01:07;20.60;80.90
35240;DHT22;21376;50.954;4.716;2023-04-03T09:03:40;21.20;73.00
35240;DHT22;21376;50.954;4.716;2023-04-03T09:06:17;21.00;72.10
35240;DHT22;21376;50.954;4.716;2023-04-03T09:14:40;21.00;71.40
35240;DHT22;21376;50.954;4.716;2023-04-03T09:17:14;21.70;70.90
35240;DHT22;21376;50.954;4.716;2023-04-03T09:26:30;20.60;69.40
35240;DHT22;21376;50.954;4.716;2023-04-03T09:29:04;17.10;78.90
35240;DHT22;21376;50.954;4.716;2023-04-03T09:31:39;18.80;77.30
35240;DHT22;21376;50.954;4.716;2023-04-03T09:34:27;19.60;71.90
35240;DHT22;21376;50.954;4.716;2023-04-03T09:36:58;19.40;74.30
35240;DHT22;21376;50.954;4.716;2023-04-03T09:39:29;19.80;71.20
35240;DHT22;21376;50.954;4.716;2023-04-03T09:42:01;18.40;74.40
35240;DHT22;21376;50.954;4.716;2023-04-03T09:44:39;17.40;76.70
35240;DHT22;21376;50.954;4.716;2023-04-03T09:50:59;19.10;73.70
35240;DHT22;21376;50.954;4.716;2023-04-03T09:57:28;20.60;70.50
35240;DHT22;21376;50.954;4.716;2023-04-03T10:03:32;20.90;66.90
35240;DHT22;21376;50.954;4.716;2023-04-03T10:06:04;17.60;73.50
35240;DHT22;21376;50.954;4.716;2023-04-03T10:09:02;16.10;76.60
35240;DHT22;21376;50.954;4.716;2023-04-03T10:11:32;17.50;78.70
35240;DHT22;21376;50.954;4.716;2023-04-03T10:14:17;18.50;72.20
35240;DHT22;21376;50.954;4.716;2023-04-03T10:32:07;21.30;65.60
35240;DHT22;21376;50.954;4.716;2023-04-03T10:34:41;22.30;66.90
35240;DHT22;21376;50.954;4.716;2023-04-03T10:37:23;22.70;65.50
35240;DHT22;21376;50.954;4.716;2023-04-03T10:46:36;20.50;62.20
35240;DHT22;21376;50.954;4.716;2023-04-03T10:49:23;19.80;61.30
35240;DHT22;21376;50.954;4.716;2023-04-03T10:54:49;19.60;60.70
35240;DHT22;21376;50.954;4.716;2023-04-03T10:57:18;18.60;60.10
35240;DHT22;21376;50.954;4.716;2023-04-03T10:59:59;16.80;69.40
35240;DHT22;21376;50.954;4.716;2023-04-03T11:02:48;17.90;67.90
35240;DHT22;21376;50.954;4.716;2023-04-03T11:06:05;19.00;68.50
35240;DHT22;21376;50.954;4.716;2023-04-03T11:08:44;20.20;65.40
35240;DHT22;21376;50.954;4.716;2023-04-03T11:11:19;19.30;67.10
35240;DHT22;21376;50.954;4.716;2023-04-03T11:16:59;21.10;62.50
35240;DHT22;21376;50.954;4.716;2023-04-03T11:19:38;21.40;62.10
35240;DHT22;21376;50.954;4.716;2023-04-03T11:22:41;19.10;59.50
35240;DHT22;21376;50.954;4.716;2023-04-03T11:25:25;18.10;60.60
35240;DHT22;21376;50.954;4.716;2023-04-03T11:40:06;20.10;56.00
35240;DHT22;21376;50.954;4.716;2023-04-03T11:42:39;19.70;54.90
35240;DHT22;21376;50.954;4.716;2023-04-03T11:45:32;18.20;59.10
35240;DHT22;21376;50.954;4.716;2023-04-03T11:50:51;19.20;59.20
35240;DHT22;21376;50.954;4.716;2023-04-03T11:53:39;19.50;59.70
35240;DHT22;21376;50.954;4.716;2023-04-03T12:02:34;16.40;59.50
35240;DHT22;21376;50.954;4.716;2023-04-03T12:11:37;15.80;55.70
35240;DHT22;21376;50.954;4.716;2023-04-03T12:14:14;16.00;57.00
35240;DHT22;21376;50.954;4.716;2023-04-03T12:16:56;16.80;58.40
35240;DHT22;21376;50.954;4.716;2023-04-03T12:19:36;17.50;57.30
35240;DHT22;21376;50.954;4.716;2023-04-03T12:22:11;17.80;55.30
35240;DHT22;21376;50.954;4.716;2023-04-03T12:24:40;16.50;56.80
35240;DHT22;21376;50.954;4.716;2023-04-03T12:27:33;16.80;55.30
35240;DHT22;21376;50.954;4.716;2023-04-03T12:30:22;17.60;55.30
35240;DHT22;21376;50.954;4.716;2023-04-03T12:33:02;18.70;54.40
35240;DHT22;21376;50.954;4.716;2023-04-03T12:41:36;18.50;53.90
35240;DHT22;21376;50.954;4.716;2023-04-03T12:44:39;19.40;53.00
35240;DHT22;21376;50.954;4.716;2023-04-03T12:47:38;19.10;52.30
35240;DHT22;21376;50.954;4.716;2023-04-03T12:53:33;17.60;55.20
35240;DHT22;21376;50.954;4.716;2023-04-03T12:58:48;14.10;59.00
35240;DHT22;21376;50.954;4.716;2023-04-03T13:01:25;13.40;59.70
35240;DHT22;21376;50.954;4.716;2023-04-03T13:03:58;12.50;63.10
35240;DHT22;21376;50.954;4.716;2023-04-03T13:06:43;12.50;64.30
35240;DHT22;21376;50.954;4.716;2023-04-03T13:09:27;12.40;63.50
35240;DHT22;21376;50.954;4.716;2023-04-03T13:11:58;12.20;63.20
35240;DHT22;21376;50.954;4.716;2023-04-03T13:14:28;12.10;62.10
35240;DHT22;21376;50.954;4.716;2023-04-03T13:23:45;12.00;67.40
35240;DHT22;21376;50.954;4.716;2023-04-03T13:26:29;12.30;64.80
35240;DHT22;21376;50.954;4.716;2023-04-03T13:29:24;12.30;64.50
35240;DHT22;21376;50.954;4.716;2023-04-03T13:31:55;11.90;68.00
35240;DHT22;21376;50.954;4.716;2023-04-03T13:34:26;12.00;67.30
35240;DHT22;21376;50.954;4.716;2023-04-03T13:36:58;12.10;65.20
35240;DHT22;21376;50.954;4.716;2023-04-03T13:48:46;12.40;67.50
35240;DHT22;21376;50.954;4.716;2023-04-03T13:51:26;12.20;68.10
35240;DHT22;21376;50.954;4.716;2023-04-03T13:53:59;12.40;67.70
35240;DHT22;21376;50.954;4.716;2023-04-03T13:56:38;12.50;68.20
35240;DHT22;21376;50.954;4.716;2023-04-03T14:02:17;11.40;68.30
35240;DHT22;21376;50.954;4.716;2023-04-03T14:07:34;12.10;70.90
35240;DHT22;21376;50.954;4.716;2023-04-03T14:10:03;11.90;68.40
35240;DHT22;21376;50.954;4.716;2023-04-03T14:12:36;11.50;67.50
35240;DHT22;21376;50.954;4.716;2023-04-03T14:15:26;11.40;70.00
35240;DHT22;21376;50.954;4.716;2023-04-03T14:17:55;11.60;67.10
35240;DHT22;21376;50.954;4.716;2023-04-03T14:20:26;11.70;72.10
35240;DHT22;21376;50.954;4.716;2023-04-03T14:22:55;11.70;66.80
35240;DHT22;21376;50.954;4.716;2023-04-03T14:25:24;11.80;66.60
35240;DHT22;21376;50.954;4.716;2023-04-03T14:28:00;11.80;70.10
35240;DHT22;21376;50.954;4.716;2023-04-03T14:30:37;11.80;70.00
35240;DHT22;21376;50.954;4.716;2023-04-03T14:33:06;12.00;69.60
35240;DHT22;21376;50.954;4.716;2023-04-03T14:35:38;11.70;65.60
35240;DHT22;21376;50.954;4.716;2023-04-03T14:38:12;11.70;67.50
35240;DHT22;21376;50.954;4.716;2023-04-03T14:40:57;11.40;65.10
35240;DHT22;21376;50.954;4.716;2023-04-03T14:43:25;11.50;68.80
35240;DHT22;21376;50.954;4.716;2023-04-03T14:45:52;11.60;66.90
35240;DHT22;21376;50.954;4.716;2023-04-03T14:48:24;11.60;66.80
35240;DHT22;21376;50.954;4.716;2023-04-03T14:51:03;11.40;66.40
35240;DHT22;21376;50.954;4.716;2023-04-03T14:53:31;11.40;68.40
35240;DHT22;21376;50.954;4.716;2023-04-03T14:56:01;11.50;67.10
35240;DHT22;21376;50.954;4.716;2023-04-03T14:58:29;11.40;68.00
35240;DHT22;21376;50.954;4.716;2023-04-03T15:04:14;11.30;69.70
35240;DHT22;21376;50.954;4.716;2023-04-03T15:06:41;11.50;67.70
35240;DHT22;21376;50.954;4.716;2023-04-03T15:09:23;11.40;69.80
35240;DHT22;21376;50.954;4.716;2023-04-03T15:12:04;11.40;68.20
35240;DHT22;21376;50.954;4.716;2023-04-03T15:14:36;11.00;66.70
35240;DHT22;21376;50.954;4.716;2023-04-03T15:17:05;11.00;68.80
35240;DHT22;21376;50.954;4.716;2023-04-03T15:19:38;11.20;69.70
35240;DHT22;21376;50.954;4.716;2023-04-03T15:22:08;11.10;69.60
35240;DHT22;21376;50.954;4.716;2023-04-03T15:24:40;11.10;70.10
35240;DHT22;21376;50.954;4.716;2023-04-03T15:27:15;11.10;69.80
35240;DHT22;21376;50.954;4.716;2023-04-03T15:29:44;10.90;70.50
35240;DHT22;21376;50.954;4.716;2023-04-03T15:32:12;10.90;70.90
35240;DHT22;21376;50.954;4.716;2023-04-03T15:34:44;11.00;71.10
35240;DHT22;21376;50.954;4.716;2023-04-03T15:37:20;10.80;70.40
35240;DHT22;21376;50.954;4.716;2023-04-03T15:39:49;10.80;71.30
35240;DHT22;21376;50.954;4.716;2023-04-03T15:42:30;10.70;72.60
35240;DHT22;21376;50.954;4.716;2023-04-03T15:44:59;10.80;72.60
35240;DHT22;21376;50.954;4.716;2023-04-03T15:47:31;10.70;72.90
35240;DHT22;21376;50.954;4.716;2023-04-03T15:49:58;10.70;75.30
35240;DHT22;21376;50.954;4.716;2023-04-03T15:52:36;10.70;75.20
35240;DHT22;21376;50.954;4.716;2023-04-03T15:58:22;10.70;75.00
35240;DHT22;21376;50.954;4.716;2023-04-03T16:00:49;10.70;76.40
35240;DHT22;21376;50.954;4.716;2023-04-03T16:03:17;10.70;74.50
35240;DHT22;21376;50.954;4.716;2023-04-03T16:05:46;10.60;76.60
35240;DHT22;21376;50.954;4.716;2023-04-03T16:08:13;10.70;75.80
35240;DHT22;21376;50.954;4.716;2023-04-03T17:02:26;10.00;78.30
35240;DHT22;21376;50.954;4.716;2023-04-03T17:04:55;9.90;79.20
35240;DHT22;21376;50.954;4.716;2023-04-03T17:10:12;9.90;81.70
35240;DHT22;21376;50.954;4.716;2023-04-03T17:12:41;9.90;81.50
35240;DHT22;21376;50.954;4.716;2023-04-03T17:15:09;9.90;82.50
35240;DHT22;21376;50.954;4.716;2023-04-03T17:17:38;9.90;82.90
35240;DHT22;21376;50.954;4.716;2023-04-03T17:20:10;9.80;82.80
35240;DHT22;21376;50.954;4.716;2023-04-03T17:22:36;9.70;82.20
35240;DHT22;21376;50.954;4.716;2023-04-03T17:25:29;9.60;82.30
35240;DHT22;21376;50.954;4.716;2023-04-03T17:28:11;9.50;82.60
35240;DHT22;21376;50.954;4.716;2023-04-03T17:30:44;9.40;82.30
35240;DHT22;21376;50.954;4.716;2023-04-03T17:33:38;9.40;83.20
35240;DHT22;21376;50.954;4.716;2023-04-03T17:36:11;9.40;81.60
35240;DHT22;21376;50.954;4.716;2023-04-03T17:38:38;9.30;82.60
35240;DHT22;21376;50.954;4.716;2023-04-03T17:41:24;9.10;83.80
35240;DHT22;21376;50.954;4.716;2023-04-03T17:43:54;9.20;83.40
35240;DHT22;21376;50.954;4.716;2023-04-03T17:46:24;9.20;82.60
35240;DHT22;21376;50.954;4.716;2023-04-03T17:49:14;9.10;82.50
35240;DHT22;21376;50.954;4.716;2023-04-03T17:51:46;9.10;82.70
35240;DHT22;21376;50.954;4.716;2023-04-03T17:54:29;9.00;83.90
35240;DHT22;21376;50.954;4.716;2023-04-03T17:57:12;8.90;84.30
35240;DHT22;21376;50.954;4.716;2023-04-03T18:16:15;8.50;86.30
35240;DHT22;21376;50.954;4.716;2023-04-03T18:19:02;8.30;87.10
35240;DHT22;21376;50.954;4.716;2023-04-03T18:21:32;8.20;86.90
35240;DHT22;21376;50.954;4.716;2023-04-03T18:24:01;8.10;88.00
35240;DHT22;21376;50.954;4.716;2023-04-03T18:26:31;8.10;88.60
35240;DHT22;21376;50.954;4.716;2023-04-03T18:31:53;8.00;89.20
35240;DHT22;21376;50.954;4.716;2023-04-03T18:34:23;8.00;89.20
35240;DHT22;21376;50.954;4.716;2023-04-03T18:36:52;7.90;90.00
35240;DHT22;21376;50.954;4.716;2023-04-03T18:42:34;7.80;90.00
35240;DHT22;21376;50.954;4.716;2023-04-03T18:45:04;7.90;90.50
35240;DHT22;21376;50.954;4.716;2023-04-03T18:47:35;7.80;90.30
35240;DHT22;21376;50.954;4.716;2023-04-03T18:53:42;7.70;90.50
35240;DHT22;21376;50.954;4.716;2023-04-03T18:56:21;7.60;90.40
35240;DHT22;21376;50.954;4.716;2023-04-03T18:58:48;7.50;90.70
35240;DHT22;21376;50.954;4.716;2023-04-03T19:01:14;7.50;91.50
35240;DHT22;21376;50.954;4.716;2023-04-03T19:03:41;7.20;91.10
35240;DHT22;21376;50.954;4.716;2023-04-03T19:06:08;7.60;91.30
35240;DHT22;21376;50.954;4.716;2023-04-03T19:08:38;7.40;91.70
35240;DHT22;21376;50.954;4.716;2023-04-03T19:11:07;7.30;91.70
35240;DHT22;21376;50.954;4.716;2023-04-03T19:14:04;7.20;92.30
35240;DHT22;21376;50.954;4.716;2023-04-03T19:16:36;7.20;92.70
35240;DHT22;21376;50.954;4.716;2023-04-03T19:19:02;7.10;93.10
35240;DHT22;21376;50.954;4.716;2023-04-03T19:21:31;7.00;93.70
35240;DHT22;21376;50.954;4.716;2023-04-03T19:23:59;7.00;94.20
35240;DHT22;21376;50.954;4.716;2023-04-03T19:26:30;6.90;94.70
35240;DHT22;21376;50.954;4.716;2023-04-03T19:29:06;6.90;94.80
35240;DHT22;21376;50.954;4.716;2023-04-03T19:31:32;7.00;95.10
35240;DHT22;21376;50.954;4.716;2023-04-03T19:33:58;6.80;95.60
35240;DHT22;21376;50.954;4.716;2023-04-03T19:36:26;6.80;95.80
35240;DHT22;21376;50.954;4.716;2023-04-03T19:38:52;6.70;96.50
35240;DHT22;21376;50.954;4.716;2023-04-03T19:41:22;6.70;97.00
35240;DHT22;21376;50.954;4.716;2023-04-03T19:43:58;6.80;97.20
35240;DHT22;21376;50.954;4.716;2023-04-03T19:46:43;6.70;97.40
35240;DHT22;21376;50.954;4.716;2023-04-03T19:49:12;6.70;98.20
35240;DHT22;21376;50.954;4.716;2023-04-03T19:51:41;6.50;98.30
35240;DHT22;21376;50.954;4.716;2023-04-03T19:54:13;6.50;99.00
35240;DHT22;21376;50.954;4.716;2023-04-03T19:56:42;6.30;99.80
35240;DHT22;21376;50.954;4.716;2023-04-03T19:59:18;6.30;99.90
35240;DHT22;21376;50.954;4.716;2023-04-03T20:01:47;6.20;99.90
35240;DHT22;21376;50.954;4.716;2023-04-03T20:04:17;6.40;99.90
35240;DHT22;21376;50.954;4.716;2023-04-03T20:06:42;6.30;99.90
35240;DHT22;21376;50.954;4.716;2023-04-03T20:09:11;6.20;99.90
35240;DHT22;21376;50.954;4.716;2023-04-03T20:11:39;6.20;99.90
35240;DHT22;21376;50.954;4.716;2023-04-03T20:14:07;6.20;99.90
35240;DHT22;21376;50.954;4.716;2023-04-03T20:16:35;6.30;99.90
35240;DHT22;21376;50.954;4.716;2023-04-03T20:19:28;6.10;99.90
35240;DHT22;21376;50.954;4.716;2023-04-03T20:22:00;6.10;99.90
35240;DHT22;21376;50.954;4.716;2023-04-03T20:24:30;6.10;99.90
35240;DHT22;21376;50.954;4.716;2023-04-03T20:27:00;5.90;99.90
35240;DHT22;21376;50.954;4.716;2023-04-03T20:29:42;5.90;99.90
35240;DHT22;21376;50.954;4.716;2023-04-03T20:32:08;5.90;99.90
35240;DHT22;21376;50.954;4.716;2023-04-03T20:41:38;5.90;99.90
35240;DHT22;21376;50.954;4.716;2023-04-03T20:50:35;5.60;99.90
35240;DHT22;21376;50.954;4.716;2023-04-03T21:00:16;5.50;99.90
35240;DHT22;21376;50.954;4.716;2023-04-03T21:21:37;5.10;99.90
35240;DHT22;21376;50.954;4.716;2023-04-03T21:24:05;5.20;99.90
35240;DHT22;21376;50.954;4.716;2023-04-03T21:26:33;5.10;99.90